Main page
METAR-TAF:

METAR-TAF

Airports :

Carlisle, England

Carlisle Lake District Airport

latitude: 54-56-15N, longitude: 002-48-33W, elevation: 57 m

Current weather observation

The report was made 9 hours and 53 minutes ago, at 16:50 UTC
Wind 8 kt from the West
Temperature 18°C
Humidity 52%
Pressure 1013 hPa
Visibility 10 km or more
Few clouds at a height of 2500 ft

METAR: EGNC 211650Z 28008KT 9999 FEW025 18/08 Q1013

Time: 03:43 (02:43 UTC)

Forecast

The report was made 12 hours and 47 minutes ago, at 13:56 UTC
Forecast valid from 21 at 15 UTC to 21 at 17 UTC
Wind 6 kt from the South
Visibility 10 km or more
Few clouds at a height of 3000 ft

TAF: EGNC 211356Z 2115/2117 18006KT 9999 FEW030

Weather observations and forecasts of more than 4000 airports (METAR and TAF reports).

The available stations are represented by yellow and red dots on the map.

Hover mouse over dot to see the name of the station.

Then click to see weather observations and forecasts.

To change the map : click on the green buttons with a black cross to zoom in, on the green button with a dash to zoom out, or on the green arrows for adjacent maps.


METAR-TAF: